CheckWX is a tool to help pilots better visualize weather data.  It is not intended as a substitute for an official pre-flight weather briefing.

14:28:00 UTC

KPHX METAR
Phoenix Sky Harbor International Airport
Phoenix, Arizona, USA
Current

37 mins ago

KPHX 291351Z 09007KT 10SM FEW150 FEW200 12/02 A2999 RMK AO2 SLP148 T01170022
Observed
Mar-29 @ 13:51 UTC
Wind
  • 090° at 7 KTS
Visibility
10 SM
Flight Rules
VFR
Cloud Levels
  • Few at 15,000' AGL
  • Few at 20,000' AGL
Temperature
12°C / 54°F
Dewpoint
C / 36°F
Humidity
51%
Altimeter
29.99" Hg
Pressure
1015.62 hPa
Previous

2 hours ago

KPHX 291251Z 12004KT 10SM SCT180 SCT200 12/03 A2997 RMK AO2 SLP141 T01170033
Observed
Mar-29 @ 12:51 UTC
Wind
  • 120° at 4 KTS
Visibility
10 SM
Flight Rules
VFR
Cloud Levels
  • Scattered at 18,000' AGL
  • Scattered at 20,000' AGL
Temperature
12°C / 54°F
Dewpoint
C / 37°F
Humidity
54%
Altimeter
29.97" Hg
Pressure
1014.92 hPa
Previous

3 hours ago

KPHX 291151Z 15003KT 10SM SCT200 13/04 A2997 RMK AO2 SLP140 T01280044 10161 20128 56001
Observed
Mar-29 @ 11:51 UTC
Wind
  • 150° at 3 KTS
Visibility
10 SM
Flight Rules
VFR
Cloud Levels
  • Scattered at 20,000' AGL
Temperature
13°C / 55°F
Dewpoint
C / 39°F
Humidity
55%
Altimeter
29.97" Hg
Pressure
1014.92 hPa